sensor_id;sensor_type;location;lat;lon;timestamp;P1;durP1;ratioP1;P2;durP2;ratioP2
14984;SDS011;7588;62.368;25.902;2022-09-09T00:04:26;11.13;;;5.87;;
14984;SDS011;7588;62.368;25.902;2022-09-09T00:09:28;10.40;;;6.23;;
14984;SDS011;7588;62.368;25.902;2022-09-09T00:12:04;12.10;;;6.10;;
14984;SDS011;7588;62.368;25.902;2022-09-09T00:14:39;10.57;;;6.20;;
14984;SDS011;7588;62.368;25.902;2022-09-09T00:17:14;10.10;;;6.10;;
14984;SDS011;7588;62.368;25.902;2022-09-09T00:20:09;10.50;;;5.50;;
14984;SDS011;7588;62.368;25.902;2022-09-09T00:22:55;11.43;;;6.10;;
14984;SDS011;7588;62.368;25.902;2022-09-09T00:25:29;12.40;;;6.13;;
14984;SDS011;7588;62.368;25.902;2022-09-09T00:28:12;11.47;;;5.53;;
14984;SDS011;7588;62.368;25.902;2022-09-09T00:30:43;9.37;;;5.60;;
14984;SDS011;7588;62.368;25.902;2022-09-09T00:33:13;8.70;;;5.60;;
14984;SDS011;7588;62.368;25.902;2022-09-09T00:35:49;11.43;;;5.30;;
14984;SDS011;7588;62.368;25.902;2022-09-09T00:38:34;11.23;;;5.90;;
14984;SDS011;7588;62.368;25.902;2022-09-09T00:41:21;11.70;;;6.63;;
14984;SDS011;7588;62.368;25.902;2022-09-09T00:52:12;12.83;;;5.47;;
14984;SDS011;7588;62.368;25.902;2022-09-09T00:55:11;9.40;;;5.70;;
14984;SDS011;7588;62.368;25.902;2022-09-09T00:57:52;10.40;;;5.70;;
14984;SDS011;7588;62.368;25.902;2022-09-09T01:14:43;10.53;;;5.73;;
14984;SDS011;7588;62.368;25.902;2022-09-09T01:17:24;9.40;;;5.37;;
14984;SDS011;7588;62.368;25.902;2022-09-09T01:28:08;12.23;;;5.17;;
14984;SDS011;7588;62.368;25.902;2022-09-09T01:30:38;9.97;;;5.43;;
14984;SDS011;7588;62.368;25.902;2022-09-09T01:33:07;8.87;;;5.47;;
14984;SDS011;7588;62.368;25.902;2022-09-09T01:38:28;11.40;;;5.60;;
14984;SDS011;7588;62.368;25.902;2022-09-09T01:40:56;10.73;;;5.50;;
14984;SDS011;7588;62.368;25.902;2022-09-09T01:43:23;11.83;;;5.70;;
14984;SDS011;7588;62.368;25.902;2022-09-09T01:45:53;9.60;;;5.33;;
14984;SDS011;7588;62.368;25.902;2022-09-09T01:48:21;11.27;;;5.73;;
14984;SDS011;7588;62.368;25.902;2022-09-09T01:50:49;11.80;;;6.27;;
14984;SDS011;7588;62.368;25.902;2022-09-09T01:53:15;11.70;;;5.43;;
14984;SDS011;7588;62.368;25.902;2022-09-09T01:55:45;12.73;;;5.57;;
14984;SDS011;7588;62.368;25.902;2022-09-09T02:04:08;13.00;;;6.00;;
14984;SDS011;7588;62.368;25.902;2022-09-09T02:06:49;10.07;;;5.73;;
14984;SDS011;7588;62.368;25.902;2022-09-09T02:09:20;12.57;;;6.10;;
14984;SDS011;7588;62.368;25.902;2022-09-09T02:11:49;12.20;;;5.90;;
14984;SDS011;7588;62.368;25.902;2022-09-09T02:14:30;11.40;;;5.33;;
14984;SDS011;7588;62.368;25.902;2022-09-09T02:17:07;14.10;;;5.67;;
14984;SDS011;7588;62.368;25.902;2022-09-09T02:19:36;11.63;;;5.90;;
14984;SDS011;7588;62.368;25.902;2022-09-09T02:22:13;10.43;;;5.50;;
14984;SDS011;7588;62.368;25.902;2022-09-09T02:24:42;13.83;;;5.63;;
14984;SDS011;7588;62.368;25.902;2022-09-09T02:27:11;14.07;;;5.20;;
14984;SDS011;7588;62.368;25.902;2022-09-09T02:29:39;13.47;;;6.00;;
14984;SDS011;7588;62.368;25.902;2022-09-09T02:32:08;15.70;;;6.27;;
14984;SDS011;7588;62.368;25.902;2022-09-09T02:34:39;10.30;;;5.80;;
14984;SDS011;7588;62.368;25.902;2022-09-09T02:37:08;11.80;;;6.13;;
14984;SDS011;7588;62.368;25.902;2022-09-09T02:39:35;13.30;;;6.53;;
14984;SDS011;7588;62.368;25.902;2022-09-09T02:42:01;13.00;;;5.70;;
14984;SDS011;7588;62.368;25.902;2022-09-09T02:44:29;12.23;;;5.67;;
14984;SDS011;7588;62.368;25.902;2022-09-09T02:47:03;14.87;;;5.93;;
14984;SDS011;7588;62.368;25.902;2022-09-09T02:50:05;12.40;;;5.70;;
14984;SDS011;7588;62.368;25.902;2022-09-09T02:55:20;16.07;;;5.47;;
14984;SDS011;7588;62.368;25.902;2022-09-09T02:57:49;10.07;;;5.30;;
14984;SDS011;7588;62.368;25.902;2022-09-09T03:00:16;12.00;;;5.90;;
14984;SDS011;7588;62.368;25.902;2022-09-09T03:02:49;12.80;;;5.70;;
14984;SDS011;7588;62.368;25.902;2022-09-09T03:05:16;11.80;;;5.60;;
14984;SDS011;7588;62.368;25.902;2022-09-09T03:07:42;10.63;;;7.07;;
14984;SDS011;7588;62.368;25.902;2022-09-09T03:10:08;13.80;;;6.10;;
14984;SDS011;7588;62.368;25.902;2022-09-09T03:12:35;8.77;;;5.13;;
14984;SDS011;7588;62.368;25.902;2022-09-09T03:15:01;12.13;;;5.53;;
14984;SDS011;7588;62.368;25.902;2022-09-09T03:17:27;14.90;;;5.27;;
14984;SDS011;7588;62.368;25.902;2022-09-09T03:19:53;14.50;;;6.40;;
14984;SDS011;7588;62.368;25.902;2022-09-09T03:22:20;13.93;;;5.83;;
14984;SDS011;7588;62.368;25.902;2022-09-09T03:24:46;13.03;;;5.53;;
14984;SDS011;7588;62.368;25.902;2022-09-09T03:27:12;10.77;;;5.50;;
14984;SDS011;7588;62.368;25.902;2022-09-09T03:29:39;14.00;;;6.30;;
14984;SDS011;7588;62.368;25.902;2022-09-09T03:32:05;12.70;;;6.33;;
14984;SDS011;7588;62.368;25.902;2022-09-09T03:34:31;16.63;;;6.23;;
14984;SDS011;7588;62.368;25.902;2022-09-09T03:36:57;13.70;;;6.27;;
14984;SDS011;7588;62.368;25.902;2022-09-09T03:39:23;12.83;;;6.20;;
14984;SDS011;7588;62.368;25.902;2022-09-09T03:41:48;13.63;;;5.77;;
14984;SDS011;7588;62.368;25.902;2022-09-09T03:44:14;16.37;;;6.07;;
14984;SDS011;7588;62.368;25.902;2022-09-09T03:46:40;16.13;;;6.33;;
14984;SDS011;7588;62.368;25.902;2022-09-09T03:49:06;14.90;;;6.27;;
14984;SDS011;7588;62.368;25.902;2022-09-09T03:51:31;14.40;;;5.80;;
14984;SDS011;7588;62.368;25.902;2022-09-09T03:54:01;14.73;;;6.73;;
14984;SDS011;7588;62.368;25.902;2022-09-09T03:56:26;16.73;;;6.70;;
14984;SDS011;7588;62.368;25.902;2022-09-09T03:58:52;20.93;;;6.67;;
14984;SDS011;7588;62.368;25.902;2022-09-09T04:01:18;15.27;;;7.20;;
14984;SDS011;7588;62.368;25.902;2022-09-09T04:03:44;13.03;;;6.73;;
14984;SDS011;7588;62.368;25.902;2022-09-09T04:06:12;15.40;;;7.07;;
14984;SDS011;7588;62.368;25.902;2022-09-09T04:08:39;16.13;;;6.67;;
14984;SDS011;7588;62.368;25.902;2022-09-09T04:11:05;19.67;;;7.47;;
14984;SDS011;7588;62.368;25.902;2022-09-09T04:13:35;20.67;;;6.67;;
14984;SDS011;7588;62.368;25.902;2022-09-09T04:16:05;17.90;;;6.73;;
14984;SDS011;7588;62.368;25.902;2022-09-09T04:18:31;17.53;;;7.37;;
14984;SDS011;7588;62.368;25.902;2022-09-09T04:20:59;24.03;;;7.83;;
14984;SDS011;7588;62.368;25.902;2022-09-09T04:23:25;17.40;;;8.00;;
14984;SDS011;7588;62.368;25.902;2022-09-09T04:25:54;21.10;;;7.10;;
14984;SDS011;7588;62.368;25.902;2022-09-09T04:28:22;18.90;;;8.17;;
14984;SDS011;7588;62.368;25.902;2022-09-09T04:30:49;16.57;;;7.50;;
14984;SDS011;7588;62.368;25.902;2022-09-09T04:33:15;18.03;;;7.50;;
14984;SDS011;7588;62.368;25.902;2022-09-09T04:35:45;21.97;;;7.80;;
14984;SDS011;7588;62.368;25.902;2022-09-09T04:38:12;15.23;;;6.70;;
14984;SDS011;7588;62.368;25.902;2022-09-09T04:40:38;18.33;;;7.83;;
14984;SDS011;7588;62.368;25.902;2022-09-09T04:43:07;19.73;;;6.90;;
14984;SDS011;7588;62.368;25.902;2022-09-09T04:45:34;16.67;;;7.70;;
14984;SDS011;7588;62.368;25.902;2022-09-09T04:48:03;19.33;;;8.03;;
14984;SDS011;7588;62.368;25.902;2022-09-09T04:50:29;24.70;;;8.90;;
14984;SDS011;7588;62.368;25.902;2022-09-09T04:52:54;16.37;;;7.37;;
14984;SDS011;7588;62.368;25.902;2022-09-09T04:55:20;18.27;;;7.70;;
14984;SDS011;7588;62.368;25.902;2022-09-09T04:57:46;21.53;;;8.37;;
14984;SDS011;7588;62.368;25.902;2022-09-09T05:00:11;19.03;;;8.33;;
14984;SDS011;7588;62.368;25.902;2022-09-09T05:02:38;19.30;;;8.10;;
14984;SDS011;7588;62.368;25.902;2022-09-09T05:05:05;19.93;;;7.93;;
14984;SDS011;7588;62.368;25.902;2022-09-09T05:07:31;20.93;;;8.73;;
14984;SDS011;7588;62.368;25.902;2022-09-09T05:09:57;19.13;;;7.77;;
14984;SDS011;7588;62.368;25.902;2022-09-09T05:12:23;27.47;;;8.27;;
14984;SDS011;7588;62.368;25.902;2022-09-09T05:14:51;23.50;;;9.23;;
14984;SDS011;7588;62.368;25.902;2022-09-09T05:17:17;24.07;;;8.50;;
14984;SDS011;7588;62.368;25.902;2022-09-09T05:19:43;15.70;;;8.03;;
14984;SDS011;7588;62.368;25.902;2022-09-09T05:22:09;18.53;;;8.07;;
14984;SDS011;7588;62.368;25.902;2022-09-09T05:24:37;16.43;;;8.77;;
14984;SDS011;7588;62.368;25.902;2022-09-09T05:27:03;15.47;;;7.67;;
14984;SDS011;7588;62.368;25.902;2022-09-09T05:29:31;15.23;;;7.47;;
14984;SDS011;7588;62.368;25.902;2022-09-09T05:31:58;16.17;;;7.97;;
14984;SDS011;7588;62.368;25.902;2022-09-09T05:34:24;17.80;;;7.50;;
14984;SDS011;7588;62.368;25.902;2022-09-09T05:36:50;17.07;;;8.57;;
14984;SDS011;7588;62.368;25.902;2022-09-09T05:39:17;18.97;;;8.40;;
14984;SDS011;7588;62.368;25.902;2022-09-09T05:41:43;19.90;;;9.57;;
14984;SDS011;7588;62.368;25.902;2022-09-09T05:44:09;27.53;;;10.10;;
14984;SDS011;7588;62.368;25.902;2022-09-09T05:46:34;17.03;;;9.67;;
14984;SDS011;7588;62.368;25.902;2022-09-09T05:49:01;21.80;;;10.40;;
14984;SDS011;7588;62.368;25.902;2022-09-09T05:51:28;19.90;;;10.63;;
14984;SDS011;7588;62.368;25.902;2022-09-09T05:53:57;17.50;;;9.83;;
14984;SDS011;7588;62.368;25.902;2022-09-09T05:56:27;18.03;;;10.97;;
14984;SDS011;7588;62.368;25.902;2022-09-09T05:58:54;28.37;;;13.27;;
14984;SDS011;7588;62.368;25.902;2022-09-09T06:01:31;26.13;;;12.33;;
14984;SDS011;7588;62.368;25.902;2022-09-09T06:03:58;19.90;;;10.60;;
14984;SDS011;7588;62.368;25.902;2022-09-09T06:06:30;17.30;;;11.00;;
14984;SDS011;7588;62.368;25.902;2022-09-09T06:09:02;15.67;;;9.57;;
14984;SDS011;7588;62.368;25.902;2022-09-09T06:11:31;20.17;;;14.70;;
14984;SDS011;7588;62.368;25.902;2022-09-09T06:13:59;23.37;;;14.30;;
14984;SDS011;7588;62.368;25.902;2022-09-09T06:16:25;18.40;;;13.60;;
14984;SDS011;7588;62.368;25.902;2022-09-09T06:18:53;20.07;;;14.40;;
14984;SDS011;7588;62.368;25.902;2022-09-09T06:23:56;16.70;;;11.87;;
14984;SDS011;7588;62.368;25.902;2022-09-09T06:26:25;9.60;;;8.00;;
14984;SDS011;7588;62.368;25.902;2022-09-09T06:28:55;11.00;;;8.07;;
14984;SDS011;7588;62.368;25.902;2022-09-09T06:31:23;9.47;;;8.47;;
14984;SDS011;7588;62.368;25.902;2022-09-09T06:33:52;8.23;;;6.57;;
14984;SDS011;7588;62.368;25.902;2022-09-09T06:36:41;10.20;;;7.17;;
14984;SDS011;7588;62.368;25.902;2022-09-09T06:39:06;7.43;;;6.40;;
14984;SDS011;7588;62.368;25.902;2022-09-09T06:41:33;6.67;;;6.00;;
14984;SDS011;7588;62.368;25.902;2022-09-09T06:43:59;7.37;;;5.83;;
14984;SDS011;7588;62.368;25.902;2022-09-09T06:46:27;8.67;;;7.20;;
14984;SDS011;7588;62.368;25.902;2022-09-09T06:48:55;8.30;;;6.10;;
14984;SDS011;7588;62.368;25.902;2022-09-09T06:51:24;9.60;;;6.40;;
14984;SDS011;7588;62.368;25.902;2022-09-09T06:53:53;7.27;;;4.93;;
14984;SDS011;7588;62.368;25.902;2022-09-09T06:58:56;3.50;;;3.20;;
14984;SDS011;7588;62.368;25.902;2022-09-09T07:01:28;2.93;;;2.70;;
14984;SDS011;7588;62.368;25.902;2022-09-09T07:03:57;2.60;;;2.40;;
14984;SDS011;7588;62.368;25.902;2022-09-09T07:06:27;3.30;;;2.30;;
14984;SDS011;7588;62.368;25.902;2022-09-09T07:08:56;2.40;;;2.23;;
14984;SDS011;7588;62.368;25.902;2022-09-09T07:11:25;2.30;;;2.10;;
14984;SDS011;7588;62.368;25.902;2022-09-09T07:13:52;2.20;;;2.00;;
14984;SDS011;7588;62.368;25.902;2022-09-09T07:16:19;2.30;;;2.10;;
14984;SDS011;7588;62.368;25.902;2022-09-09T07:18:46;4.28;;;1.98;;
14984;SDS011;7588;62.368;25.902;2022-09-09T07:21:12;2.13;;;1.92;;
14984;SDS011;7588;62.368;25.902;2022-09-09T07:23:39;2.50;;;1.98;;
14984;SDS011;7588;62.368;25.902;2022-09-09T07:26:10;2.00;;;1.90;;
14984;SDS011;7588;62.368;25.902;2022-09-09T07:28:38;4.00;;;2.22;;
14984;SDS011;7588;62.368;25.902;2022-09-09T07:31:04;1.58;;;1.48;;
14984;SDS011;7588;62.368;25.902;2022-09-09T07:33:32;2.45;;;2.17;;
14984;SDS011;7588;62.368;25.902;2022-09-09T07:36:09;3.72;;;1.77;;
14984;SDS011;7588;62.368;25.902;2022-09-09T07:38:45;3.92;;;1.90;;
14984;SDS011;7588;62.368;25.902;2022-09-09T07:41:17;1.80;;;1.70;;
14984;SDS011;7588;62.368;25.902;2022-09-09T07:43:45;1.80;;;1.70;;
14984;SDS011;7588;62.368;25.902;2022-09-09T07:46:13;2.00;;;1.80;;
14984;SDS011;7588;62.368;25.902;2022-09-09T07:48:46;1.52;;;1.42;;
14984;SDS011;7588;62.368;25.902;2022-09-09T07:51:18;2.22;;;1.70;;
14984;SDS011;7588;62.368;25.902;2022-09-09T07:53:51;3.70;;;1.60;;
14984;SDS011;7588;62.368;25.902;2022-09-09T07:56:18;3.83;;;2.00;;
14984;SDS011;7588;62.368;25.902;2022-09-09T07:58:48;1.83;;;1.35;;
14984;SDS011;7588;62.368;25.902;2022-09-09T08:01:17;1.48;;;1.38;;
14984;SDS011;7588;62.368;25.902;2022-09-09T08:03:44;1.40;;;1.30;;
14984;SDS011;7588;62.368;25.902;2022-09-09T08:06:11;1.70;;;1.60;;
14984;SDS011;7588;62.368;25.902;2022-09-09T08:08:38;1.80;;;1.70;;
14984;SDS011;7588;62.368;25.902;2022-09-09T08:11:09;5.00;;;1.40;;
14984;SDS011;7588;62.368;25.902;2022-09-09T08:13:37;1.50;;;1.40;;
14984;SDS011;7588;62.368;25.902;2022-09-09T08:16:04;1.90;;;1.80;;
14984;SDS011;7588;62.368;25.902;2022-09-09T08:18:37;1.58;;;1.48;;
14984;SDS011;7588;62.368;25.902;2022-09-09T08:21:12;3.70;;;1.95;;
14984;SDS011;7588;62.368;25.902;2022-09-09T08:23:39;3.53;;;1.80;;
14984;SDS011;7588;62.368;25.902;2022-09-09T08:26:10;1.77;;;1.67;;
14984;SDS011;7588;62.368;25.902;2022-09-09T08:28:47;1.40;;;1.30;;
14984;SDS011;7588;62.368;25.902;2022-09-09T08:31:20;3.03;;;2.83;;
14984;SDS011;7588;62.368;25.902;2022-09-09T08:33:48;1.65;;;1.30;;
14984;SDS011;7588;62.368;25.902;2022-09-09T08:36:15;1.50;;;1.40;;
14984;SDS011;7588;62.368;25.902;2022-09-09T08:38:42;2.33;;;2.20;;
14984;SDS011;7588;62.368;25.902;2022-09-09T08:52:38;1.60;;;1.30;;
14984;SDS011;7588;62.368;25.902;2022-09-09T08:57:46;1.42;;;1.33;;
14984;SDS011;7588;62.368;25.902;2022-09-09T09:00:14;1.55;;;1.45;;
14984;SDS011;7588;62.368;25.902;2022-09-09T09:05:49;2.05;;;1.40;;
14984;SDS011;7588;62.368;25.902;2022-09-09T09:11:26;1.38;;;1.27;;
14984;SDS011;7588;62.368;25.902;2022-09-09T09:16:33;1.40;;;1.30;;
14984;SDS011;7588;62.368;25.902;2022-09-09T09:19:15;5.07;;;1.50;;
14984;SDS011;7588;62.368;25.902;2022-09-09T09:21:43;1.35;;;1.25;;
14984;SDS011;7588;62.368;25.902;2022-09-09T09:24:18;1.63;;;1.20;;
14984;SDS011;7588;62.368;25.902;2022-09-09T09:26:48;1.77;;;1.10;;
14984;SDS011;7588;62.368;25.902;2022-09-09T09:29:15;1.20;;;1.10;;
14984;SDS011;7588;62.368;25.902;2022-09-09T09:31:48;1.00;;;0.90;;
14984;SDS011;7588;62.368;25.902;2022-09-09T09:34:19;1.45;;;1.00;;
14984;SDS011;7588;62.368;25.902;2022-09-09T09:36:46;2.38;;;1.20;;
14984;SDS011;7588;62.368;25.902;2022-09-09T09:39:25;1.27;;;1.17;;
14984;SDS011;7588;62.368;25.902;2022-09-09T09:42:09;1.30;;;1.20;;
14984;SDS011;7588;62.368;25.902;2022-09-09T09:44:41;2.00;;;1.48;;
14984;SDS011;7588;62.368;25.902;2022-09-09T09:49:50;1.38;;;1.27;;
14984;SDS011;7588;62.368;25.902;2022-09-09T09:52:21;1.30;;;1.20;;
14984;SDS011;7588;62.368;25.902;2022-09-09T09:54:50;1.00;;;0.90;;
14984;SDS011;7588;62.368;25.902;2022-09-09T09:57:17;1.90;;;1.10;;
14984;SDS011;7588;62.368;25.902;2022-09-09T09:59:48;0.88;;;0.88;;
14984;SDS011;7588;62.368;25.902;2022-09-09T10:02:25;0.77;;;0.73;;
14984;SDS011;7588;62.368;25.902;2022-09-09T10:07:47;0.93;;;0.88;;
14984;SDS011;7588;62.368;25.902;2022-09-09T10:13:53;1.33;;;0.75;;
14984;SDS011;7588;62.368;25.902;2022-09-09T10:19:13;2.10;;;1.00;;
14984;SDS011;7588;62.368;25.902;2022-09-09T10:33:10;1.20;;;1.10;;
14984;SDS011;7588;62.368;25.902;2022-09-09T11:00:05;2.25;;;1.05;;
14984;SDS011;7588;62.368;25.902;2022-09-09T11:02:39;1.10;;;1.00;;
14984;SDS011;7588;62.368;25.902;2022-09-09T11:07:48;1.27;;;1.17;;
14984;SDS011;7588;62.368;25.902;2022-09-09T11:10:23;1.13;;;1.13;;
14984;SDS011;7588;62.368;25.902;2022-09-09T11:18:56;1.85;;;0.90;;
14984;SDS011;7588;62.368;25.902;2022-09-09T11:21:36;5.55;;;1.63;;
14984;SDS011;7588;62.368;25.902;2022-09-09T11:24:10;1.05;;;1.00;;
14984;SDS011;7588;62.368;25.902;2022-09-09T11:39:56;0.80;;;0.80;;
14984;SDS011;7588;62.368;25.902;2022-09-09T11:42:35;0.95;;;0.95;;
14984;SDS011;7588;62.368;25.902;2022-09-09T11:47:54;0.60;;;0.60;;
14984;SDS011;7588;62.368;25.902;2022-09-09T11:52:50;1.75;;;1.00;;
14984;SDS011;7588;62.368;25.902;2022-09-09T11:55:26;2.85;;;1.00;;
14984;SDS011;7588;62.368;25.902;2022-09-09T11:58:04;0.95;;;0.90;;
14984;SDS011;7588;62.368;25.902;2022-09-09T12:00:48;3.22;;;1.10;;
14984;SDS011;7588;62.368;25.902;2022-09-09T12:06:32;2.63;;;1.10;;
14984;SDS011;7588;62.368;25.902;2022-09-09T12:09:08;2.03;;;1.15;;
14984;SDS011;7588;62.368;25.902;2022-09-09T12:19:40;1.15;;;1.00;;
14984;SDS011;7588;62.368;25.902;2022-09-09T12:22:19;2.58;;;1.38;;
14984;SDS011;7588;62.368;25.902;2022-09-09T12:30:22;1.27;;;0.90;;
14984;SDS011;7588;62.368;25.902;2022-09-09T12:33:11;1.83;;;0.98;;
14984;SDS011;7588;62.368;25.902;2022-09-09T12:35:38;1.97;;;1.20;;
14984;SDS011;7588;62.368;25.902;2022-09-09T12:38:07;4.07;;;1.10;;
14984;SDS011;7588;62.368;25.902;2022-09-09T12:40:40;1.57;;;1.20;;
14984;SDS011;7588;62.368;25.902;2022-09-09T12:43:19;2.67;;;1.50;;
14984;SDS011;7588;62.368;25.902;2022-09-09T12:45:47;1.73;;;1.00;;
14984;SDS011;7588;62.368;25.902;2022-09-09T12:48:16;1.20;;;1.10;;
14984;SDS011;7588;62.368;25.902;2022-09-09T12:50:45;2.17;;;1.13;;
14984;SDS011;7588;62.368;25.902;2022-09-09T12:53:23;3.30;;;1.50;;
14984;SDS011;7588;62.368;25.902;2022-09-09T12:58:32;4.87;;;1.30;;
14984;SDS011;7588;62.368;25.902;2022-09-09T13:00:58;1.15;;;1.10;;
14984;SDS011;7588;62.368;25.902;2022-09-09T13:03:25;1.20;;;1.10;;
14984;SDS011;7588;62.368;25.902;2022-09-09T13:05:53;2.47;;;1.47;;
14984;SDS011;7588;62.368;25.902;2022-09-09T13:08:24;1.37;;;1.27;;
14984;SDS011;7588;62.368;25.902;2022-09-09T13:10:54;1.03;;;0.90;;
14984;SDS011;7588;62.368;25.902;2022-09-09T13:13:29;1.20;;;1.20;;
14984;SDS011;7588;62.368;25.902;2022-09-09T13:15:59;1.57;;;1.13;;
14984;SDS011;7588;62.368;25.902;2022-09-09T13:18:30;2.97;;;1.33;;
14984;SDS011;7588;62.368;25.902;2022-09-09T13:20:58;1.20;;;1.10;;
14984;SDS011;7588;62.368;25.902;2022-09-09T13:23:32;1.47;;;1.10;;
14984;SDS011;7588;62.368;25.902;2022-09-09T13:26:04;1.43;;;0.90;;
14984;SDS011;7588;62.368;25.902;2022-09-09T13:28:32;2.37;;;1.60;;
14984;SDS011;7588;62.368;25.902;2022-09-09T13:31:18;1.40;;;1.30;;
14984;SDS011;7588;62.368;25.902;2022-09-09T13:33:49;1.27;;;1.17;;
14984;SDS011;7588;62.368;25.902;2022-09-09T13:36:15;1.10;;;1.00;;
14984;SDS011;7588;62.368;25.902;2022-09-09T13:38:54;1.90;;;1.20;;
14984;SDS011;7588;62.368;25.902;2022-09-09T13:41:22;2.20;;;1.20;;
14984;SDS011;7588;62.368;25.902;2022-09-09T13:43:50;2.63;;;1.60;;
14984;SDS011;7588;62.368;25.902;2022-09-09T13:46:35;1.10;;;1.00;;
14984;SDS011;7588;62.368;25.902;2022-09-09T13:49:18;2.00;;;1.30;;
14984;SDS011;7588;62.368;25.902;2022-09-09T13:51:47;0.80;;;0.80;;
14984;SDS011;7588;62.368;25.902;2022-09-09T13:54:19;1.00;;;1.00;;
14984;SDS011;7588;62.368;25.902;2022-09-09T13:56:46;2.30;;;0.90;;
14984;SDS011;7588;62.368;25.902;2022-09-09T13:59:13;1.30;;;1.20;;
14984;SDS011;7588;62.368;25.902;2022-09-09T14:01:40;2.27;;;1.13;;
14984;SDS011;7588;62.368;25.902;2022-09-09T14:04:07;1.87;;;1.33;;
14984;SDS011;7588;62.368;25.902;2022-09-09T14:06:34;1.30;;;1.20;;
14984;SDS011;7588;62.368;25.902;2022-09-09T14:09:07;1.20;;;1.10;;
14984;SDS011;7588;62.368;25.902;2022-09-09T14:11:35;2.27;;;1.20;;
14984;SDS011;7588;62.368;25.902;2022-09-09T14:14:04;3.37;;;1.23;;
14984;SDS011;7588;62.368;25.902;2022-09-09T14:16:30;1.20;;;1.10;;
14984;SDS011;7588;62.368;25.902;2022-09-09T14:18:56;0.90;;;0.90;;
14984;SDS011;7588;62.368;25.902;2022-09-09T14:21:22;0.90;;;0.90;;
14984;SDS011;7588;62.368;25.902;2022-09-09T14:23:48;1.97;;;1.23;;
14984;SDS011;7588;62.368;25.902;2022-09-09T14:26:14;0.90;;;0.90;;
14984;SDS011;7588;62.368;25.902;2022-09-09T14:28:40;1.10;;;1.00;;
14984;SDS011;7588;62.368;25.902;2022-09-09T14:31:06;1.10;;;1.03;;
14984;SDS011;7588;62.368;25.902;2022-09-09T14:33:32;0.90;;;0.90;;
14984;SDS011;7588;62.368;25.902;2022-09-09T14:36:00;1.00;;;1.00;;
14984;SDS011;7588;62.368;25.902;2022-09-09T14:38:34;3.37;;;1.30;;
14984;SDS011;7588;62.368;25.902;2022-09-09T14:41:11;1.07;;;0.97;;
14984;SDS011;7588;62.368;25.902;2022-09-09T14:43:38;0.70;;;0.70;;
14984;SDS011;7588;62.368;25.902;2022-09-09T14:46:05;1.10;;;1.00;;
14984;SDS011;7588;62.368;25.902;2022-09-09T14:48:32;2.10;;;0.90;;
14984;SDS011;7588;62.368;25.902;2022-09-09T14:51:08;1.07;;;0.93;;
14984;SDS011;7588;62.368;25.902;2022-09-09T14:53:35;1.70;;;1.00;;
14984;SDS011;7588;62.368;25.902;2022-09-09T14:56:03;1.10;;;1.00;;
14984;SDS011;7588;62.368;25.902;2022-09-09T14:58:37;3.53;;;1.40;;
14984;SDS011;7588;62.368;25.902;2022-09-09T15:01:09;2.57;;;1.10;;
14984;SDS011;7588;62.368;25.902;2022-09-09T15:03:37;0.80;;;0.80;;
14984;SDS011;7588;62.368;25.902;2022-09-09T15:06:13;2.13;;;1.20;;
14984;SDS011;7588;62.368;25.902;2022-09-09T15:08:41;2.63;;;1.00;;
14984;SDS011;7588;62.368;25.902;2022-09-09T15:11:08;1.23;;;1.13;;
14984;SDS011;7588;62.368;25.902;2022-09-09T15:13:35;1.57;;;1.10;;
14984;SDS011;7588;62.368;25.902;2022-09-09T15:16:06;1.40;;;0.90;;
14984;SDS011;7588;62.368;25.902;2022-09-09T15:18:33;1.00;;;1.00;;
14984;SDS011;7588;62.368;25.902;2022-09-09T15:20:59;0.93;;;0.93;;
14984;SDS011;7588;62.368;25.902;2022-09-09T15:23:26;2.43;;;0.90;;
14984;SDS011;7588;62.368;25.902;2022-09-09T15:25:53;2.87;;;1.10;;
14984;SDS011;7588;62.368;25.902;2022-09-09T15:28:20;1.40;;;1.30;;
14984;SDS011;7588;62.368;25.902;2022-09-09T15:30:50;3.27;;;1.47;;
14984;SDS011;7588;62.368;25.902;2022-09-09T15:33:17;1.27;;;1.20;;
14984;SDS011;7588;62.368;25.902;2022-09-09T15:35:44;1.40;;;1.23;;
14984;SDS011;7588;62.368;25.902;2022-09-09T15:38:10;2.87;;;1.30;;
14984;SDS011;7588;62.368;25.902;2022-09-09T15:40:38;1.90;;;1.40;;
14984;SDS011;7588;62.368;25.902;2022-09-09T15:43:07;2.83;;;1.37;;
14984;SDS011;7588;62.368;25.902;2022-09-09T15:45:34;1.47;;;1.37;;
14984;SDS011;7588;62.368;25.902;2022-09-09T15:48:02;4.77;;;1.80;;
14984;SDS011;7588;62.368;25.902;2022-09-09T15:50:28;3.50;;;1.73;;
14984;SDS011;7588;62.368;25.902;2022-09-09T15:52:56;6.20;;;1.70;;
14984;SDS011;7588;62.368;25.902;2022-09-09T15:55:22;2.10;;;1.70;;
14984;SDS011;7588;62.368;25.902;2022-09-09T15:57:49;3.43;;;2.20;;
14984;SDS011;7588;62.368;25.902;2022-09-09T16:00:17;2.40;;;2.20;;
14984;SDS011;7588;62.368;25.902;2022-09-09T16:02:43;4.07;;;2.20;;
14984;SDS011;7588;62.368;25.902;2022-09-09T16:05:09;4.93;;;2.63;;
14984;SDS011;7588;62.368;25.902;2022-09-09T16:07:35;3.07;;;2.60;;
14984;SDS011;7588;62.368;25.902;2022-09-09T16:10:01;5.33;;;3.03;;
14984;SDS011;7588;62.368;25.902;2022-09-09T16:12:27;5.20;;;2.97;;
14984;SDS011;7588;62.368;25.902;2022-09-09T16:14:53;5.37;;;2.97;;
14984;SDS011;7588;62.368;25.902;2022-09-09T16:17:19;3.77;;;3.33;;
14984;SDS011;7588;62.368;25.902;2022-09-09T16:19:46;7.30;;;4.10;;
14984;SDS011;7588;62.368;25.902;2022-09-09T16:22:11;3.57;;;3.27;;
14984;SDS011;7588;62.368;25.902;2022-09-09T16:24:40;4.10;;;3.40;;
14984;SDS011;7588;62.368;25.902;2022-09-09T16:27:06;3.57;;;2.77;;
14984;SDS011;7588;62.368;25.902;2022-09-09T16:29:31;4.40;;;2.73;;
14984;SDS011;7588;62.368;25.902;2022-09-09T16:31:57;3.17;;;2.83;;
14984;SDS011;7588;62.368;25.902;2022-09-09T16:34:25;3.23;;;2.90;;
14984;SDS011;7588;62.368;25.902;2022-09-09T16:36:51;3.93;;;3.00;;
14984;SDS011;7588;62.368;25.902;2022-09-09T16:39:17;3.10;;;2.80;;
14984;SDS011;7588;62.368;25.902;2022-09-09T16:41:45;4.03;;;3.63;;
14984;SDS011;7588;62.368;25.902;2022-09-09T16:44:15;3.67;;;2.87;;
14984;SDS011;7588;62.368;25.902;2022-09-09T16:46:43;3.20;;;2.90;;
14984;SDS011;7588;62.368;25.902;2022-09-09T16:49:11;4.97;;;3.73;;
14984;SDS011;7588;62.368;25.902;2022-09-09T16:51:44;3.67;;;3.17;;
14984;SDS011;7588;62.368;25.902;2022-09-09T16:54:12;3.50;;;3.20;;
14984;SDS011;7588;62.368;25.902;2022-09-09T16:56:41;6.57;;;3.20;;
14984;SDS011;7588;62.368;25.902;2022-09-09T16:59:12;4.63;;;3.10;;
14984;SDS011;7588;62.368;25.902;2022-09-09T17:01:40;4.90;;;3.30;;
14984;SDS011;7588;62.368;25.902;2022-09-09T17:04:13;3.30;;;3.00;;
14984;SDS011;7588;62.368;25.902;2022-09-09T17:06:45;4.20;;;3.30;;
14984;SDS011;7588;62.368;25.902;2022-09-09T17:09:14;6.97;;;3.00;;
14984;SDS011;7588;62.368;25.902;2022-09-09T17:11:40;5.37;;;3.40;;
14984;SDS011;7588;62.368;25.902;2022-09-09T17:14:07;4.23;;;3.50;;
14984;SDS011;7588;62.368;25.902;2022-09-09T17:16:36;6.77;;;3.50;;
14984;SDS011;7588;62.368;25.902;2022-09-09T17:19:04;11.33;;;3.10;;
14984;SDS011;7588;62.368;25.902;2022-09-09T17:21:30;7.07;;;3.83;;
14984;SDS011;7588;62.368;25.902;2022-09-09T17:23:58;8.73;;;3.67;;
14984;SDS011;7588;62.368;25.902;2022-09-09T17:26:25;10.57;;;4.03;;
14984;SDS011;7588;62.368;25.902;2022-09-09T17:28:53;10.10;;;3.70;;
14984;SDS011;7588;62.368;25.902;2022-09-09T17:31:20;4.53;;;3.20;;
14984;SDS011;7588;62.368;25.902;2022-09-09T17:33:47;6.73;;;3.93;;
14984;SDS011;7588;62.368;25.902;2022-09-09T17:38:44;5.87;;;3.80;;
14984;SDS011;7588;62.368;25.902;2022-09-09T17:41:12;5.20;;;4.20;;
14984;SDS011;7588;62.368;25.902;2022-09-09T17:43:40;11.57;;;4.47;;
14984;SDS011;7588;62.368;25.902;2022-09-09T17:48:34;6.77;;;4.57;;
14984;SDS011;7588;62.368;25.902;2022-09-09T17:51:02;6.77;;;4.37;;
14984;SDS011;7588;62.368;25.902;2022-09-09T17:53:29;7.37;;;3.80;;